createdAt,value
2023-08-19T00:01:14.452Z,26.88
2023-08-19T00:03:42.491Z,26.93
2023-08-19T00:06:14.868Z,26.86
2023-08-19T00:08:42.876Z,26.88
2023-08-19T00:11:11.589Z,26.91
2023-08-19T00:13:42.706Z,26.87
2023-08-19T00:16:12.247Z,26.96
2023-08-19T00:18:40.347Z,27.10
2023-08-19T00:21:08.480Z,27.02
2023-08-19T00:23:36.706Z,27.01
2023-08-19T00:26:04.688Z,26.99
2023-08-19T00:28:32.654Z,26.82
2023-08-19T00:31:00.776Z,26.90
2023-08-19T00:33:30.271Z,26.76
2023-08-19T00:35:58.363Z,26.91
2023-08-19T00:38:28.728Z,26.83
2023-08-19T00:40:57.112Z,26.83
2023-08-19T00:43:25.153Z,26.70
2023-08-19T00:45:53.840Z,26.72
2023-08-19T00:48:22.940Z,26.59
2023-08-19T00:50:52.577Z,26.54
2023-08-19T00:53:20.769Z,26.52
2023-08-19T00:55:50.851Z,26.46
2023-08-19T00:58:20.705Z,26.29
2023-08-19T01:00:49.958Z,26.44
2023-08-19T01:03:20.187Z,26.31
2023-08-19T01:06:03.219Z,26.43
2023-08-19T01:08:40.915Z,26.37
2023-08-19T01:11:17.003Z,26.37
2023-08-19T01:13:54.040Z,26.33
2023-08-19T01:16:26.559Z,26.22
2023-08-19T01:18:57.886Z,26.21
2023-08-19T01:21:27.666Z,26.13
2023-08-19T01:24:00.985Z,26.29
2023-08-19T01:26:30.878Z,26.16
2023-08-19T01:28:59.058Z,26.24
2023-08-19T01:31:27.328Z,26.16
2023-08-19T01:33:56.249Z,26.10
2023-08-19T01:36:34.580Z,26.24
2023-08-19T01:39:04.856Z,26.17
2023-08-19T01:41:36.831Z,26.29
2023-08-19T01:44:05.626Z,26.12
2023-08-19T01:46:34.465Z,26.13
2023-08-19T01:49:04.026Z,26.17
2023-08-19T01:51:50.845Z,26.14
2023-08-19T01:54:22.082Z,26.20
2023-08-19T01:56:56.784Z,26.25
2023-08-19T01:59:48.239Z,26.19
2023-08-19T02:02:22.171Z,26.26
2023-08-19T02:05:13.640Z,26.26
2023-08-19T02:08:15.582Z,26.25
2023-08-19T02:10:45.010Z,26.11
2023-08-19T02:13:14.954Z,26.24
2023-08-19T02:15:45.797Z,26.27
2023-08-19T02:18:14.290Z,26.23
2023-08-19T02:20:42.479Z,26.09
2023-08-19T02:23:10.638Z,26.17
2023-08-19T02:25:38.638Z,26.16
2023-08-19T02:28:07.268Z,26.15
2023-08-19T02:30:36.690Z,26.20
2023-08-19T02:33:07.182Z,26.20
2023-08-19T02:35:35.493Z,26.18
2023-08-19T02:38:03.573Z,26.19
2023-08-19T02:40:32.832Z,26.21
2023-08-19T02:43:01.142Z,26.21
2023-08-19T02:45:29.386Z,26.23
2023-08-19T02:47:59.164Z,26.29
2023-08-19T02:50:27.326Z,26.13
2023-08-19T02:52:55.755Z,26.35
2023-08-19T02:55:23.962Z,26.48
2023-08-19T02:57:53.739Z,26.42
2023-08-19T03:00:21.880Z,26.33
2023-08-19T03:02:50.386Z,26.31
2023-08-19T03:05:21.721Z,26.23
2023-08-19T03:07:50.723Z,26.32
2023-08-19T03:10:19.057Z,26.31
2023-08-19T03:12:48.460Z,26.23
2023-08-19T03:15:16.834Z,26.20
2023-08-19T03:17:45.089Z,26.26
2023-08-19T03:20:14.118Z,26.26
2023-08-19T03:22:43.668Z,26.22
2023-08-19T03:25:12.872Z,26.21
2023-08-19T03:27:41.065Z,26.32
2023-08-19T03:30:11.419Z,26.21
2023-08-19T03:32:40.836Z,26.27
2023-08-19T03:35:09.817Z,26.26
2023-08-19T03:37:38.155Z,26.15
2023-08-19T03:40:12.186Z,26.25
2023-08-19T03:42:40.283Z,26.28
2023-08-19T03:45:09.420Z,26.27
2023-08-19T03:47:37.645Z,26.21
2023-08-19T03:50:06.627Z,26.22
2023-08-19T03:52:35.802Z,26.25
2023-08-19T03:55:09.661Z,26.21
2023-08-19T03:57:37.681Z,26.29
2023-08-19T04:00:07.947Z,26.13
2023-08-19T04:02:36.303Z,26.11
2023-08-19T04:05:08.904Z,26.17
2023-08-19T04:07:39.108Z,26.23
2023-08-19T04:10:10.205Z,26.34
2023-08-19T04:12:41.200Z,26.34
2023-08-19T04:15:11.583Z,26.34
2023-08-19T04:17:39.671Z,26.32
2023-08-19T04:20:11.238Z,26.32
2023-08-19T04:22:39.857Z,26.42
2023-08-19T04:25:10.013Z,26.46
2023-08-19T04:27:40.201Z,26.43
2023-08-19T04:30:09.294Z,26.49
2023-08-19T04:32:37.835Z,26.42
2023-08-19T04:35:06.991Z,26.45
2023-08-19T04:37:35.395Z,26.50
2023-08-19T04:40:10.462Z,26.54
2023-08-19T04:42:40.194Z,26.50
2023-08-19T04:45:10.152Z,26.48
2023-08-19T04:47:38.235Z,26.74
2023-08-19T04:50:11.990Z,26.86
2023-08-19T04:52:40.452Z,26.87
2023-08-19T04:55:09.593Z,26.99
2023-08-19T04:57:39.810Z,27.12
2023-08-19T05:00:13.584Z,27.05
2023-08-19T05:02:41.823Z,26.92
2023-08-19T05:05:10.329Z,27.26
2023-08-19T05:07:40.732Z,27.21
2023-08-19T05:10:10.516Z,27.19
2023-08-19T05:12:40.275Z,27.31
2023-08-19T05:15:09.829Z,27.47
2023-08-19T05:17:38.175Z,27.38
2023-08-19T05:20:08.073Z,27.51
2023-08-19T05:22:37.127Z,27.38
2023-08-19T05:25:06.652Z,27.32
2023-08-19T05:27:35.320Z,27.54
2023-08-19T05:30:08.333Z,27.53
2023-08-19T05:32:36.413Z,27.52
2023-08-19T05:35:06.113Z,27.68
2023-08-19T05:37:34.517Z,27.55
2023-08-19T05:40:07.741Z,27.45
2023-08-19T05:42:35.937Z,27.71
2023-08-19T05:45:05.858Z,27.85
2023-08-19T05:47:34.118Z,27.82
2023-08-19T05:50:02.264Z,27.80
2023-08-19T05:52:30.273Z,28.14
2023-08-19T05:55:00.706Z,27.90
2023-08-19T05:57:30.565Z,27.96
2023-08-19T05:59:58.802Z,28.26
2023-08-19T06:02:28.204Z,28.20
2023-08-19T06:04:57.192Z,28.33
2023-08-19T06:07:27.880Z,28.31
2023-08-19T06:09:56.048Z,28.38
2023-08-19T06:12:23.964Z,28.50
2023-08-19T06:14:52.160Z,28.73
2023-08-19T06:17:20.116Z,29.02
2023-08-19T06:19:49.638Z,29.06
2023-08-19T06:22:17.835Z,29.30
2023-08-19T06:24:45.899Z,29.42
2023-08-19T06:27:14.122Z,29.31
2023-08-19T06:29:42.104Z,29.47
2023-08-19T06:32:11.485Z,29.38
2023-08-19T06:34:40.119Z,29.56
2023-08-19T06:37:13.647Z,29.14
2023-08-19T06:39:46.299Z,29.21
2023-08-19T06:42:18.031Z,29.38
2023-08-19T06:44:50.625Z,29.02
2023-08-19T06:47:27.593Z,29.05
2023-08-19T06:49:57.121Z,28.77
2023-08-19T06:52:30.200Z,29.29
2023-08-19T06:54:58.776Z,29.31
2023-08-19T06:57:35.317Z,29.05
2023-08-19T07:00:09.188Z,28.97
2023-08-19T07:02:40.333Z,29.10
2023-08-19T07:05:14.909Z,29.24
2023-08-19T07:08:00.833Z,29.46
2023-08-19T07:10:29.942Z,29.43
2023-08-19T07:13:10.401Z,29.62
2023-08-19T07:15:43.567Z,29.28
2023-08-19T07:18:20.475Z,29.63
2023-08-19T07:20:51.481Z,29.99
2023-08-19T07:23:26.842Z,29.99
2023-08-19T07:26:10.848Z,30.20
2023-08-19T07:28:39.684Z,30.34
2023-08-19T07:31:12.169Z,29.88
2023-08-19T07:33:42.160Z,30.63
2023-08-19T07:36:10.730Z,30.68
2023-08-19T07:38:42.824Z,31.05
2023-08-19T07:41:14.556Z,30.81
2023-08-19T07:43:44.292Z,30.44
2023-08-19T07:46:16.739Z,30.71
2023-08-19T07:48:45.485Z,31.36
2023-08-19T07:51:19.147Z,31.42
2023-08-19T07:53:49.925Z,31.75
2023-08-19T07:56:18.588Z,31.65
2023-08-19T07:58:47.252Z,31.40
2023-08-19T08:01:15.428Z,31.48
2023-08-19T08:03:44.477Z,31.27
2023-08-19T08:06:13.837Z,31.65
2023-08-19T08:08:50.823Z,31.72
2023-08-19T08:11:26.243Z,32.48
2023-08-19T08:14:11.634Z,31.67
2023-08-19T08:16:39.706Z,31.71
2023-08-19T08:19:44.834Z,31.65
2023-08-19T08:22:29.674Z,31.46
2023-08-19T08:25:14.286Z,31.73
2023-08-19T08:27:44.575Z,31.85
2023-08-19T08:30:13.217Z,31.67
2023-08-19T08:36:03.156Z,32.16
2023-08-19T08:42:04.476Z,32.03
2023-08-19T08:44:36.134Z,32.25
2023-08-19T08:47:05.367Z,32.11
2023-08-19T08:49:35.344Z,32.20
2023-08-19T08:52:11.834Z,32.80
2023-08-19T08:54:45.571Z,33.17
2023-08-19T08:57:17.771Z,34.59
2023-08-19T08:59:46.900Z,35.48
2023-08-19T09:02:19.921Z,34.99
2023-08-19T09:04:49.187Z,34.88
2023-08-19T09:07:25.189Z,35.20
2023-08-19T09:09:55.255Z,35.95
2023-08-19T09:12:27.935Z,35.39
2023-08-19T09:15:03.108Z,35.39
2023-08-19T09:17:32.388Z,35.60
2023-08-19T09:20:01.438Z,35.48
2023-08-19T09:22:29.529Z,35.70
2023-08-19T09:24:58.528Z,34.93
2023-08-19T09:27:29.605Z,35.15
2023-08-19T09:29:57.606Z,34.63
2023-08-19T09:32:35.771Z,34.06
2023-08-19T09:35:07.263Z,34.13
2023-08-19T09:37:38.377Z,34.69
2023-08-19T09:40:12.534Z,34.75
2023-08-19T09:42:50.527Z,34.81
2023-08-19T09:45:21.226Z,35.34
2023-08-19T09:47:53.771Z,34.94
2023-08-19T09:50:23.723Z,35.97
2023-08-19T09:52:57.701Z,36.43
2023-08-19T09:55:27.978Z,36.09
2023-08-19T09:57:59.150Z,35.85
2023-08-19T10:00:28.358Z,36.02
2023-08-19T10:02:57.645Z,35.59
2023-08-19T10:05:31.398Z,34.53
2023-08-19T10:08:02.525Z,34.03
2023-08-19T10:10:33.404Z,33.35
2023-08-19T10:13:03.586Z,32.45
2023-08-19T10:15:35.199Z,32.54
2023-08-19T10:18:08.316Z,31.55
2023-08-19T10:20:37.914Z,31.46
2023-08-19T10:23:08.191Z,30.94
2023-08-19T10:28:29.266Z,30.38
2023-08-19T10:31:14.353Z,29.94
2023-08-19T10:33:46.347Z,30.81
2023-08-19T10:36:17.579Z,30.72
2023-08-19T10:38:50.088Z,31.00
2023-08-19T10:41:20.969Z,31.24
2023-08-19T10:43:59.212Z,31.05
2023-08-19T10:46:36.288Z,30.38
2023-08-19T10:49:06.675Z,31.10
2023-08-19T10:52:04.503Z,31.18
2023-08-19T10:54:36.510Z,31.09
2023-08-19T10:57:13.169Z,31.32
2023-08-19T10:59:46.180Z,31.27
2023-08-19T11:02:15.153Z,31.65
2023-08-19T11:04:44.807Z,32.07
2023-08-19T11:07:13.476Z,32.08
2023-08-19T11:09:43.765Z,32.51
2023-08-19T11:12:12.356Z,32.48
2023-08-19T11:14:41.758Z,32.66
2023-08-19T11:17:12.029Z,33.08
2023-08-19T11:19:41.445Z,33.93
2023-08-19T11:22:14.157Z,34.38
2023-08-19T11:24:43.004Z,35.26
2023-08-19T11:27:11.154Z,36.60
2023-08-19T11:29:40.257Z,36.20
2023-08-19T11:32:08.698Z,34.24
2023-08-19T11:34:39.258Z,34.41
2023-08-19T11:37:07.394Z,34.67
2023-08-19T11:39:37.836Z,33.91
2023-08-19T11:42:06.541Z,33.98
2023-08-19T11:44:34.617Z,34.55
2023-08-19T11:47:02.896Z,35.22
2023-08-19T11:49:31.857Z,35.84
2023-08-19T11:52:01.360Z,36.21
2023-08-19T11:54:29.452Z,35.68
2023-08-19T11:57:03.874Z,35.17
2023-08-19T11:59:33.258Z,36.04
2023-08-19T12:02:11.923Z,34.21
2023-08-19T12:05:00.428Z,34.63
2023-08-19T12:08:13.082Z,35.25
2023-08-19T12:10:42.166Z,34.83
2023-08-19T12:13:14.733Z,35.34
2023-08-19T12:15:43.638Z,34.49
2023-08-19T12:18:27.162Z,34.00
2023-08-19T12:21:19.233Z,34.45
2023-08-19T12:23:49.695Z,33.41
2023-08-19T12:26:24.370Z,33.20
2023-08-19T12:29:20.056Z,32.43
2023-08-19T12:31:49.616Z,31.83
2023-08-19T12:34:23.487Z,31.20
2023-08-19T12:37:03.408Z,31.64
2023-08-19T12:39:46.011Z,31.37
2023-08-19T12:42:26.660Z,30.83
2023-08-19T12:45:02.684Z,30.33
2023-08-19T12:47:30.758Z,30.72
2023-08-19T12:50:00.875Z,30.80
2023-08-19T12:52:30.189Z,30.72
2023-08-19T12:55:00.510Z,30.73
2023-08-19T12:57:31.201Z,30.40
2023-08-19T12:59:59.413Z,30.30
2023-08-19T13:02:32.857Z,29.89
2023-08-19T13:05:03.429Z,30.66
2023-08-19T13:07:34.859Z,30.21
2023-08-19T13:10:04.563Z,31.35
2023-08-19T13:12:37.353Z,30.93
2023-08-19T13:15:09.737Z,31.72
2023-08-19T13:17:38.329Z,31.35
2023-08-19T13:20:09.261Z,31.94
2023-08-19T13:22:37.356Z,31.51
2023-08-19T13:25:08.695Z,31.29
2023-08-19T13:27:37.031Z,31.68
2023-08-19T13:30:07.399Z,31.53
2023-08-19T13:32:36.755Z,31.84
2023-08-19T13:35:06.590Z,30.92
2023-08-19T13:37:34.984Z,31.03
2023-08-19T13:40:07.767Z,30.84
2023-08-19T13:42:37.654Z,31.36
2023-08-19T13:45:09.395Z,31.58
2023-08-19T13:47:37.830Z,31.38
2023-08-19T13:50:07.394Z,31.23
2023-08-19T13:52:41.188Z,31.81
2023-08-19T13:55:12.659Z,30.76
2023-08-19T13:57:43.318Z,31.62
2023-08-19T14:00:20.068Z,32.05
2023-08-19T14:02:50.655Z,31.75
2023-08-19T14:05:29.167Z,31.98
2023-08-19T14:07:58.488Z,30.90
2023-08-19T14:10:27.739Z,31.37
2023-08-19T14:13:00.982Z,30.79
2023-08-19T14:15:29.646Z,31.24
2023-08-19T14:18:09.184Z,30.07
2023-08-19T14:20:38.976Z,30.49
2023-08-19T14:23:08.830Z,30.68
2023-08-19T14:25:40.991Z,30.45
2023-08-19T14:28:17.706Z,31.16
2023-08-19T14:30:48.940Z,30.94
2023-08-19T14:33:21.645Z,31.00
2023-08-19T14:35:54.822Z,30.11
2023-08-19T14:38:36.193Z,30.43
2023-08-19T14:41:19.320Z,30.79
2023-08-19T14:43:52.047Z,31.01
2023-08-19T14:46:23.588Z,30.48
2023-08-19T14:48:59.483Z,29.74
2023-08-19T14:52:23.256Z,30.15
2023-08-19T14:55:48.620Z,30.22
2023-08-19T14:58:45.038Z,29.07
2023-08-19T15:01:15.674Z,29.30
2023-08-19T15:03:50.383Z,29.36
2023-08-19T15:06:40.476Z,29.74
2023-08-19T15:09:10.804Z,29.45
2023-08-19T15:11:56.022Z,29.51
2023-08-19T15:14:36.273Z,29.42
2023-08-19T15:17:06.877Z,28.98
2023-08-19T15:19:42.054Z,28.57
2023-08-19T15:22:19.362Z,29.08
2023-08-19T15:24:56.721Z,28.65
2023-08-19T15:27:27.418Z,29.00
2023-08-19T15:29:55.515Z,28.86
2023-08-19T15:32:25.246Z,28.73
2023-08-19T15:34:53.728Z,28.88
2023-08-19T15:38:44.202Z,28.94
2023-08-19T15:40:44.616Z,28.96
2023-08-19T15:43:12.797Z,28.75
2023-08-19T15:45:40.742Z,28.63
2023-08-19T15:48:10.344Z,28.31
2023-08-19T15:50:39.367Z,28.80
2023-08-19T15:53:07.535Z,28.51
2023-08-19T15:55:35.524Z,28.84
2023-08-19T15:58:04.396Z,28.52
2023-08-19T16:00:32.461Z,28.71
2023-08-19T16:03:00.563Z,29.19
2023-08-19T16:05:30.028Z,29.22
2023-08-19T16:07:59.293Z,29.25
2023-08-19T16:10:27.491Z,29.43
2023-08-19T16:12:57.968Z,30.87
2023-08-19T16:15:26.387Z,31.07
2023-08-19T16:17:54.866Z,30.21
2023-08-19T16:20:23.567Z,30.49
2023-08-19T16:22:53.479Z,31.26
2023-08-19T16:25:21.683Z,30.99
2023-08-19T16:27:52.887Z,30.67
2023-08-19T16:30:21.484Z,30.79
2023-08-19T16:32:49.506Z,31.33
2023-08-19T16:35:20.518Z,31.80
2023-08-19T16:37:49.135Z,33.74
2023-08-19T16:40:20.924Z,31.63
2023-08-19T16:42:49.377Z,32.16
2023-08-19T16:45:17.748Z,31.03
2023-08-19T16:47:46.474Z,31.28
2023-08-19T16:50:14.714Z,31.09
2023-08-19T16:52:42.889Z,32.05
2023-08-19T16:55:11.350Z,32.07
2023-08-19T16:57:41.026Z,31.84
2023-08-19T17:00:10.039Z,30.78
2023-08-19T17:02:40.950Z,31.11
2023-08-19T17:05:09.957Z,31.65
2023-08-19T17:07:39.218Z,31.98
2023-08-19T17:10:09.211Z,31.65
2023-08-19T17:12:37.917Z,30.74
2023-08-19T17:15:08.790Z,31.85
2023-08-19T17:17:37.272Z,31.58
2023-08-19T17:20:07.674Z,31.24
2023-08-19T17:22:40.249Z,31.02
2023-08-19T17:25:11.690Z,31.21
2023-08-19T17:27:40.394Z,31.22
2023-08-19T17:30:14.133Z,31.58
2023-08-19T17:32:42.720Z,31.11
2023-08-19T17:35:14.365Z,31.36
2023-08-19T17:37:42.636Z,30.83
2023-08-19T17:40:12.069Z,30.81
2023-08-19T17:42:40.180Z,30.66
2023-08-19T17:45:12.240Z,30.70
2023-08-19T17:47:45.542Z,30.44
2023-08-19T17:50:13.814Z,29.85
2023-08-19T17:52:43.912Z,28.89
2023-08-19T17:55:14.973Z,29.74
2023-08-19T17:57:43.989Z,30.35
2023-08-19T18:00:15.294Z,29.73
2023-08-19T18:02:52.880Z,30.48
2023-08-19T18:05:22.328Z,30.54
2023-08-19T18:07:50.679Z,29.36
2023-08-19T18:10:20.206Z,29.24
2023-08-19T18:12:51.948Z,27.71
2023-08-19T18:15:24.836Z,27.87
2023-08-19T18:17:55.301Z,27.82
2023-08-19T18:20:24.857Z,27.52
2023-08-19T18:22:54.313Z,27.29
2023-08-19T18:25:22.563Z,27.28
2023-08-19T18:27:52.464Z,27.02
2023-08-19T18:30:21.865Z,26.87
2023-08-19T18:32:52.455Z,26.93
2023-08-19T18:35:21.391Z,26.46
2023-08-19T18:37:50.219Z,26.61
2023-08-19T18:40:19.343Z,26.51
2023-08-19T18:42:47.651Z,26.40
2023-08-19T18:45:16.846Z,26.18
2023-08-19T18:48:06.482Z,26.43
2023-08-19T18:50:36.541Z,26.28
2023-08-19T18:53:05.807Z,26.13
2023-08-19T18:55:38.280Z,26.04
2023-08-19T18:58:08.229Z,25.76
2023-08-19T19:00:37.029Z,25.61
2023-08-19T19:03:08.189Z,25.40
2023-08-19T19:05:36.549Z,25.34
2023-08-19T19:08:07.549Z,25.14
2023-08-19T19:10:35.633Z,25.02
2023-08-19T19:13:03.894Z,24.74
2023-08-19T19:15:32.376Z,24.69
2023-08-19T19:18:03.795Z,24.60
2023-08-19T19:20:33.774Z,24.65
2023-08-19T19:23:02.041Z,24.60
2023-08-19T19:25:31.216Z,24.39
2023-08-19T19:28:00.259Z,24.44
2023-08-19T19:30:28.166Z,24.37
2023-08-19T19:32:56.306Z,24.24
2023-08-19T19:35:24.557Z,24.17
2023-08-19T19:37:56.839Z,24.11
2023-08-19T19:40:26.563Z,23.91
2023-08-19T19:42:56.478Z,23.88
2023-08-19T19:45:25.804Z,23.84
2023-08-19T19:47:54.247Z,23.92
2023-08-19T19:50:22.568Z,23.99
2023-08-19T19:52:53.539Z,23.89
2023-08-19T19:55:21.680Z,23.74
2023-08-19T19:57:50.063Z,23.69
2023-08-19T20:00:18.142Z,23.52
2023-08-19T20:02:46.432Z,23.66
2023-08-19T20:05:17.450Z,23.66
2023-08-19T20:07:46.189Z,23.69
2023-08-19T20:10:27.197Z,23.46
2023-08-19T20:13:00.039Z,23.50
2023-08-19T20:15:30.442Z,23.41
2023-08-19T20:17:59.231Z,23.42
2023-08-19T20:20:27.429Z,23.44
2023-08-19T20:22:55.853Z,23.45
2023-08-19T20:25:27.419Z,23.31
2023-08-19T20:27:55.756Z,23.25
2023-08-19T20:30:24.822Z,23.27
2023-08-19T20:32:55.292Z,23.23
2023-08-19T20:35:23.730Z,23.24
2023-08-19T20:37:54.664Z,23.24
2023-08-19T20:40:22.624Z,23.08
2023-08-19T20:42:53.952Z,23.13
2023-08-19T20:45:23.081Z,23.23
2023-08-19T20:47:52.763Z,23.18
2023-08-19T20:50:21.202Z,23.22
2023-08-19T20:52:49.437Z,23.22
2023-08-19T20:55:17.410Z,23.29
2023-08-19T20:57:45.743Z,23.17
2023-08-19T21:00:17.971Z,23.19
2023-08-19T21:02:52.830Z,23.04
2023-08-19T21:05:21.327Z,23.02
2023-08-19T21:07:50.283Z,23.02
2023-08-19T21:10:18.496Z,22.85
2023-08-19T21:12:49.479Z,22.88
2023-08-19T21:15:40.516Z,23.02
2023-08-19T21:18:39.517Z,22.86
2023-08-19T21:21:45.213Z,22.80
2023-08-19T21:24:21.956Z,22.71
2023-08-19T21:27:02.445Z,22.65
2023-08-19T21:29:31.663Z,22.65
2023-08-19T21:32:01.459Z,22.60
2023-08-19T21:34:30.739Z,22.49
2023-08-19T21:36:59.113Z,22.61
2023-08-19T21:39:27.418Z,22.54
2023-08-19T21:41:56.534Z,22.54
2023-08-19T21:44:26.619Z,22.49
2023-08-19T21:46:57.848Z,22.35
2023-08-19T21:49:27.836Z,22.49
2023-08-19T21:51:57.830Z,22.42
2023-08-19T21:54:26.125Z,22.49
2023-08-19T21:56:54.516Z,22.41
2023-08-19T21:59:23.974Z,22.23
2023-08-19T22:01:52.380Z,22.23
2023-08-19T22:04:20.472Z,22.29
2023-08-19T22:06:49.804Z,22.23
2023-08-19T22:09:18.322Z,22.20
2023-08-19T22:11:47.664Z,22.36
2023-08-19T22:14:17.286Z,22.29
2023-08-19T22:16:46.449Z,22.31
2023-08-19T22:19:14.631Z,22.31
2023-08-19T22:21:44.112Z,22.40
2023-08-19T22:24:13.671Z,22.33
2023-08-19T22:26:42.977Z,22.18
2023-08-19T22:29:13.945Z,22.32
2023-08-19T22:31:42.440Z,22.25
2023-08-19T22:34:10.580Z,22.08
2023-08-19T22:36:38.735Z,22.21
2023-08-19T22:39:07.094Z,22.15
2023-08-19T22:41:36.954Z,22.15
2023-08-19T22:44:05.898Z,22.26
2023-08-19T22:46:34.415Z,21.95
2023-08-19T22:49:02.695Z,22.01
2023-08-19T22:51:30.630Z,21.99
2023-08-19T22:54:00.453Z,21.99
2023-08-19T22:56:28.634Z,22.00
2023-08-19T22:58:59.436Z,22.11
2023-08-19T23:01:29.422Z,22.03
2023-08-19T23:04:22.345Z,22.08
2023-08-19T23:06:51.614Z,22.07
2023-08-19T23:09:19.998Z,21.96
2023-08-19T23:11:48.329Z,21.78
2023-08-19T23:14:17.980Z,21.79
2023-08-19T23:16:46.038Z,21.64
2023-08-19T23:19:14.434Z,21.73
2023-08-19T23:21:46.536Z,21.64
2023-08-19T23:24:15.548Z,21.66
2023-08-19T23:26:43.786Z,21.70
2023-08-19T23:29:11.933Z,21.74
2023-08-19T23:31:41.290Z,21.76
2023-08-19T23:34:11.474Z,21.72
2023-08-19T23:36:39.747Z,21.27
2023-08-19T23:39:08.838Z,21.53
2023-08-19T23:41:40.077Z,21.66
2023-08-19T23:44:14.389Z,21.51
2023-08-19T23:46:44.888Z,21.17
2023-08-19T23:49:15.270Z,21.23
2023-08-19T23:51:46.283Z,21.09
2023-08-19T23:54:15.332Z,21.19
2023-08-19T23:56:43.992Z,21.17
2023-08-19T23:59:12.557Z,21.24
